sensor_id;sensor_type;location;lat;lon;timestamp;temperature;humidity
28747;DHT22;15903;49.008;8.394;2023-03-14T00:02:21;13.50;99.90
28747;DHT22;15903;49.008;8.394;2023-03-14T00:04:47;13.50;99.90
28747;DHT22;15903;49.008;8.394;2023-03-14T00:07:13;13.40;99.90
28747;DHT22;15903;49.008;8.394;2023-03-14T00:09:38;13.40;99.90
28747;DHT22;15903;49.008;8.394;2023-03-14T00:12:04;13.50;99.90
28747;DHT22;15903;49.008;8.394;2023-03-14T00:14:32;13.50;99.90
28747;DHT22;15903;49.008;8.394;2023-03-14T00:16:57;13.50;99.90
28747;DHT22;15903;49.008;8.394;2023-03-14T00:19:23;13.40;99.90
28747;DHT22;15903;49.008;8.394;2023-03-14T00:21:48;13.40;99.90
28747;DHT22;15903;49.008;8.394;2023-03-14T00:24:14;13.40;99.90
28747;DHT22;15903;49.008;8.394;2023-03-14T00:26:40;13.40;99.90
28747;DHT22;15903;49.008;8.394;2023-03-14T00:29:05;13.40;99.90
28747;DHT22;15903;49.008;8.394;2023-03-14T00:31:31;13.40;99.90
28747;DHT22;15903;49.008;8.394;2023-03-14T00:33:57;13.40;99.90
28747;DHT22;15903;49.008;8.394;2023-03-14T00:36:22;13.40;99.90
28747;DHT22;15903;49.008;8.394;2023-03-14T00:38:51;13.40;99.90
28747;DHT22;15903;49.008;8.394;2023-03-14T00:41:19;13.40;99.90
28747;DHT22;15903;49.008;8.394;2023-03-14T00:43:45;13.40;99.90
28747;DHT22;15903;49.008;8.394;2023-03-14T00:46:12;13.40;99.90
28747;DHT22;15903;49.008;8.394;2023-03-14T00:48:37;13.50;99.90
28747;DHT22;15903;49.008;8.394;2023-03-14T00:51:04;13.50;99.90
28747;DHT22;15903;49.008;8.394;2023-03-14T00:53:30;13.50;99.90
28747;DHT22;15903;49.008;8.394;2023-03-14T00:55:56;13.50;99.90
28747;DHT22;15903;49.008;8.394;2023-03-14T00:58:21;13.40;99.90
28747;DHT22;15903;49.008;8.394;2023-03-14T01:00:47;13.40;99.90
28747;DHT22;15903;49.008;8.394;2023-03-14T01:03:13;13.40;99.90
28747;DHT22;15903;49.008;8.394;2023-03-14T01:05:39;13.40;99.90
28747;DHT22;15903;49.008;8.394;2023-03-14T01:08:06;13.50;99.90
28747;DHT22;15903;49.008;8.394;2023-03-14T01:10:32;13.40;99.90
28747;DHT22;15903;49.008;8.394;2023-03-14T01:12:58;13.40;99.90
28747;DHT22;15903;49.008;8.394;2023-03-14T01:15:23;13.40;99.90
28747;DHT22;15903;49.008;8.394;2023-03-14T01:17:49;13.40;99.90
28747;DHT22;15903;49.008;8.394;2023-03-14T01:20:15;13.30;99.90
28747;DHT22;15903;49.008;8.394;2023-03-14T01:22:41;13.40;99.90
28747;DHT22;15903;49.008;8.394;2023-03-14T01:25:09;13.30;99.90
28747;DHT22;15903;49.008;8.394;2023-03-14T01:27:35;13.30;99.90
28747;DHT22;15903;49.008;8.394;2023-03-14T01:30:01;13.30;99.90
28747;DHT22;15903;49.008;8.394;2023-03-14T01:32:27;13.30;99.90
28747;DHT22;15903;49.008;8.394;2023-03-14T01:34:53;13.20;99.90
28747;DHT22;15903;49.008;8.394;2023-03-14T01:37:18;13.30;99.90
28747;DHT22;15903;49.008;8.394;2023-03-14T01:39:46;13.30;99.90
28747;DHT22;15903;49.008;8.394;2023-03-14T01:42:12;13.30;99.90
28747;DHT22;15903;49.008;8.394;2023-03-14T01:44:58;13.20;99.90
28747;DHT22;15903;49.008;8.394;2023-03-14T01:47:25;13.10;99.90
28747;DHT22;15903;49.008;8.394;2023-03-14T01:49:56;13.10;99.90
28747;DHT22;15903;49.008;8.394;2023-03-14T01:52:32;13.00;99.90
28747;DHT22;15903;49.008;8.394;2023-03-14T01:55:09;13.00;99.90
28747;DHT22;15903;49.008;8.394;2023-03-14T01:57:40;12.90;99.90
28747;DHT22;15903;49.008;8.394;2023-03-14T02:00:12;13.00;99.90
28747;DHT22;15903;49.008;8.394;2023-03-14T02:02:44;13.00;99.90
28747;DHT22;15903;49.008;8.394;2023-03-14T02:05:12;13.00;99.90
28747;DHT22;15903;49.008;8.394;2023-03-14T02:07:49;12.90;99.90
28747;DHT22;15903;49.008;8.394;2023-03-14T02:10:18;12.80;99.90
28747;DHT22;15903;49.008;8.394;2023-03-14T02:12:45;12.80;99.90
28747;DHT22;15903;49.008;8.394;2023-03-14T02:15:12;12.80;99.90
28747;DHT22;15903;49.008;8.394;2023-03-14T02:17:38;12.80;99.90
28747;DHT22;15903;49.008;8.394;2023-03-14T02:22:49;12.70;99.90
28747;DHT22;15903;49.008;8.394;2023-03-14T02:25:27;12.70;99.90
28747;DHT22;15903;49.008;8.394;2023-03-14T02:27:56;12.70;99.90
28747;DHT22;15903;49.008;8.394;2023-03-14T02:30:25;12.70;99.90
28747;DHT22;15903;49.008;8.394;2023-03-14T02:33:29;12.70;99.90
28747;DHT22;15903;49.008;8.394;2023-03-14T02:36:03;12.70;99.90
28747;DHT22;15903;49.008;8.394;2023-03-14T02:38:40;12.70;99.90
28747;DHT22;15903;49.008;8.394;2023-03-14T02:41:08;12.60;99.90
28747;DHT22;15903;49.008;8.394;2023-03-14T02:43:34;12.70;99.90
28747;DHT22;15903;49.008;8.394;2023-03-14T02:46:01;12.60;99.90
28747;DHT22;15903;49.008;8.394;2023-03-14T02:48:53;12.70;99.90
28747;DHT22;15903;49.008;8.394;2023-03-14T02:51:21;12.60;99.90
28747;DHT22;15903;49.008;8.394;2023-03-14T02:53:47;12.60;99.90
28747;DHT22;15903;49.008;8.394;2023-03-14T02:56:13;12.60;99.90
28747;DHT22;15903;49.008;8.394;2023-03-14T02:58:39;12.60;99.90
28747;DHT22;15903;49.008;8.394;2023-03-14T03:01:04;12.60;99.90
28747;DHT22;15903;49.008;8.394;2023-03-14T03:03:30;12.60;99.90
28747;DHT22;15903;49.008;8.394;2023-03-14T03:05:56;12.60;99.90
28747;DHT22;15903;49.008;8.394;2023-03-14T03:08:24;12.60;99.90
28747;DHT22;15903;49.008;8.394;2023-03-14T03:10:50;12.60;99.90
28747;DHT22;15903;49.008;8.394;2023-03-14T03:13:16;12.60;99.90
28747;DHT22;15903;49.008;8.394;2023-03-14T03:15:42;12.60;99.90
28747;DHT22;15903;49.008;8.394;2023-03-14T03:18:08;12.60;99.90
28747;DHT22;15903;49.008;8.394;2023-03-14T03:20:33;12.60;99.90
28747;DHT22;15903;49.008;8.394;2023-03-14T03:22:59;12.50;99.90
28747;DHT22;15903;49.008;8.394;2023-03-14T03:25:25;12.50;99.90
28747;DHT22;15903;49.008;8.394;2023-03-14T03:27:51;12.50;99.90
28747;DHT22;15903;49.008;8.394;2023-03-14T03:30:17;12.40;99.90
28747;DHT22;15903;49.008;8.394;2023-03-14T03:32:43;12.40;99.90
28747;DHT22;15903;49.008;8.394;2023-03-14T03:35:09;12.50;99.90
28747;DHT22;15903;49.008;8.394;2023-03-14T03:37:35;12.60;99.90
28747;DHT22;15903;49.008;8.394;2023-03-14T03:40:00;12.50;99.90
28747;DHT22;15903;49.008;8.394;2023-03-14T03:42:29;12.60;99.90
28747;DHT22;15903;49.008;8.394;2023-03-14T03:44:55;12.50;99.90
28747;DHT22;15903;49.008;8.394;2023-03-14T03:47:20;12.50;99.90
28747;DHT22;15903;49.008;8.394;2023-03-14T03:49:46;12.50;99.90
28747;DHT22;15903;49.008;8.394;2023-03-14T03:52:11;12.50;99.90
28747;DHT22;15903;49.008;8.394;2023-03-14T03:54:37;12.50;99.90
28747;DHT22;15903;49.008;8.394;2023-03-14T03:57:03;12.40;99.90
28747;DHT22;15903;49.008;8.394;2023-03-14T03:59:29;12.40;99.90
28747;DHT22;15903;49.008;8.394;2023-03-14T04:01:54;12.40;99.90
28747;DHT22;15903;49.008;8.394;2023-03-14T04:04:20;12.50;99.90
28747;DHT22;15903;49.008;8.394;2023-03-14T04:06:45;12.50;99.90
28747;DHT22;15903;49.008;8.394;2023-03-14T04:09:11;12.40;99.90
28747;DHT22;15903;49.008;8.394;2023-03-14T04:11:37;12.30;99.90
28747;DHT22;15903;49.008;8.394;2023-03-14T04:14:03;12.30;99.90
28747;DHT22;15903;49.008;8.394;2023-03-14T04:16:30;12.40;99.90
28747;DHT22;15903;49.008;8.394;2023-03-14T04:18:57;12.40;99.90
28747;DHT22;15903;49.008;8.394;2023-03-14T04:21:23;12.40;99.90
28747;DHT22;15903;49.008;8.394;2023-03-14T04:23:49;12.40;99.90
28747;DHT22;15903;49.008;8.394;2023-03-14T04:26:15;12.40;99.90
28747;DHT22;15903;49.008;8.394;2023-03-14T04:28:41;12.40;99.90
28747;DHT22;15903;49.008;8.394;2023-03-14T04:31:08;12.40;99.90
28747;DHT22;15903;49.008;8.394;2023-03-14T04:33:33;12.30;99.90
28747;DHT22;15903;49.008;8.394;2023-03-14T04:35:59;12.20;99.90
28747;DHT22;15903;49.008;8.394;2023-03-14T04:38:25;12.30;99.90
28747;DHT22;15903;49.008;8.394;2023-03-14T04:40:50;12.30;99.90
28747;DHT22;15903;49.008;8.394;2023-03-14T04:43:16;12.20;99.90
28747;DHT22;15903;49.008;8.394;2023-03-14T04:45:42;12.30;99.90
28747;DHT22;15903;49.008;8.394;2023-03-14T04:48:07;12.20;99.90
28747;DHT22;15903;49.008;8.394;2023-03-14T04:50:33;12.30;99.90
28747;DHT22;15903;49.008;8.394;2023-03-14T04:52:59;12.30;99.90
28747;DHT22;15903;49.008;8.394;2023-03-14T04:55:24;12.20;99.90
28747;DHT22;15903;49.008;8.394;2023-03-14T04:57:50;12.20;99.90
28747;DHT22;15903;49.008;8.394;2023-03-14T05:00:16;12.20;99.90
28747;DHT22;15903;49.008;8.394;2023-03-14T05:02:44;12.30;99.90
28747;DHT22;15903;49.008;8.394;2023-03-14T05:05:09;12.30;99.90
28747;DHT22;15903;49.008;8.394;2023-03-14T05:07:35;12.20;99.90
28747;DHT22;15903;49.008;8.394;2023-03-14T05:10:01;12.30;99.90
28747;DHT22;15903;49.008;8.394;2023-03-14T05:12:26;12.30;99.90
28747;DHT22;15903;49.008;8.394;2023-03-14T05:14:52;12.30;99.90
28747;DHT22;15903;49.008;8.394;2023-03-14T05:17:17;12.30;99.90
28747;DHT22;15903;49.008;8.394;2023-03-14T05:19:44;12.30;99.90
28747;DHT22;15903;49.008;8.394;2023-03-14T05:22:10;12.30;99.90
28747;DHT22;15903;49.008;8.394;2023-03-14T05:24:36;12.30;99.90
28747;DHT22;15903;49.008;8.394;2023-03-14T05:27:01;12.40;99.90
28747;DHT22;15903;49.008;8.394;2023-03-14T05:29:27;12.40;99.90
28747;DHT22;15903;49.008;8.394;2023-03-14T05:31:53;12.40;99.90
28747;DHT22;15903;49.008;8.394;2023-03-14T05:34:18;12.40;99.90
28747;DHT22;15903;49.008;8.394;2023-03-14T05:36:44;12.40;99.90
28747;DHT22;15903;49.008;8.394;2023-03-14T05:39:09;12.30;99.90
28747;DHT22;15903;49.008;8.394;2023-03-14T05:41:35;12.40;99.90
28747;DHT22;15903;49.008;8.394;2023-03-14T05:44:01;12.30;99.90
28747;DHT22;15903;49.008;8.394;2023-03-14T05:46:26;12.30;99.90
28747;DHT22;15903;49.008;8.394;2023-03-14T05:48:52;12.30;99.90
28747;DHT22;15903;49.008;8.394;2023-03-14T05:51:18;12.30;99.90
28747;DHT22;15903;49.008;8.394;2023-03-14T05:53:43;12.20;99.90
28747;DHT22;15903;49.008;8.394;2023-03-14T05:56:09;12.20;99.90
28747;DHT22;15903;49.008;8.394;2023-03-14T05:58:34;12.20;99.90
28747;DHT22;15903;49.008;8.394;2023-03-14T06:01:04;12.20;99.90
28747;DHT22;15903;49.008;8.394;2023-03-14T06:03:31;12.20;99.90
28747;DHT22;15903;49.008;8.394;2023-03-14T06:05:57;12.20;99.90
28747;DHT22;15903;49.008;8.394;2023-03-14T06:08:22;12.20;99.90
28747;DHT22;15903;49.008;8.394;2023-03-14T06:10:48;12.20;99.90
28747;DHT22;15903;49.008;8.394;2023-03-14T06:13:13;12.20;99.90
28747;DHT22;15903;49.008;8.394;2023-03-14T06:15:41;12.20;99.90
28747;DHT22;15903;49.008;8.394;2023-03-14T06:18:07;12.30;99.90
28747;DHT22;15903;49.008;8.394;2023-03-14T06:20:32;12.30;99.90
28747;DHT22;15903;49.008;8.394;2023-03-14T06:22:58;12.20;99.90
28747;DHT22;15903;49.008;8.394;2023-03-14T06:25:24;12.20;99.90
28747;DHT22;15903;49.008;8.394;2023-03-14T06:27:50;12.10;99.90
28747;DHT22;15903;49.008;8.394;2023-03-14T06:30:16;12.10;99.90
28747;DHT22;15903;49.008;8.394;2023-03-14T06:32:42;12.10;99.90
28747;DHT22;15903;49.008;8.394;2023-03-14T06:35:08;12.20;99.90
28747;DHT22;15903;49.008;8.394;2023-03-14T06:37:34;12.10;99.90
28747;DHT22;15903;49.008;8.394;2023-03-14T06:40:00;12.10;99.90
28747;DHT22;15903;49.008;8.394;2023-03-14T06:42:25;12.10;99.90
28747;DHT22;15903;49.008;8.394;2023-03-14T06:44:51;12.20;99.90
28747;DHT22;15903;49.008;8.394;2023-03-14T06:47:16;12.20;99.90
28747;DHT22;15903;49.008;8.394;2023-03-14T06:49:42;12.20;99.90
28747;DHT22;15903;49.008;8.394;2023-03-14T06:52:08;12.30;99.90
28747;DHT22;15903;49.008;8.394;2023-03-14T06:54:33;12.30;99.90
28747;DHT22;15903;49.008;8.394;2023-03-14T06:56:59;12.30;99.90
28747;DHT22;15903;49.008;8.394;2023-03-14T06:59:24;12.30;99.90
28747;DHT22;15903;49.008;8.394;2023-03-14T07:01:50;12.40;99.90
28747;DHT22;15903;49.008;8.394;2023-03-14T07:04:16;12.40;99.90
28747;DHT22;15903;49.008;8.394;2023-03-14T07:06:42;12.40;99.90
28747;DHT22;15903;49.008;8.394;2023-03-14T07:09:10;12.40;99.90
28747;DHT22;15903;49.008;8.394;2023-03-14T07:11:36;12.40;99.90
28747;DHT22;15903;49.008;8.394;2023-03-14T07:14:02;12.50;99.90
28747;DHT22;15903;49.008;8.394;2023-03-14T07:16:27;12.40;99.90
28747;DHT22;15903;49.008;8.394;2023-03-14T07:18:56;12.50;99.90
28747;DHT22;15903;49.008;8.394;2023-03-14T07:21:22;12.50;99.90
28747;DHT22;15903;49.008;8.394;2023-03-14T07:23:48;12.60;99.90
28747;DHT22;15903;49.008;8.394;2023-03-14T07:26:13;12.60;99.90
28747;DHT22;15903;49.008;8.394;2023-03-14T07:28:39;12.70;99.90
28747;DHT22;15903;49.008;8.394;2023-03-14T07:31:05;12.80;99.90
28747;DHT22;15903;49.008;8.394;2023-03-14T07:33:31;12.80;99.90
28747;DHT22;15903;49.008;8.394;2023-03-14T07:35:57;12.80;99.90
28747;DHT22;15903;49.008;8.394;2023-03-14T07:38:22;12.90;99.90
28747;DHT22;15903;49.008;8.394;2023-03-14T07:40:48;13.00;99.90
28747;DHT22;15903;49.008;8.394;2023-03-14T07:43:14;13.00;99.90
28747;DHT22;15903;49.008;8.394;2023-03-14T07:45:39;13.20;99.90
28747;DHT22;15903;49.008;8.394;2023-03-14T07:48:05;13.10;99.90
28747;DHT22;15903;49.008;8.394;2023-03-14T07:50:30;13.10;99.90
28747;DHT22;15903;49.008;8.394;2023-03-14T07:52:56;13.20;99.90
28747;DHT22;15903;49.008;8.394;2023-03-14T07:55:21;13.20;99.90
28747;DHT22;15903;49.008;8.394;2023-03-14T07:57:47;13.20;99.90
28747;DHT22;15903;49.008;8.394;2023-03-14T08:00:13;13.20;99.90
28747;DHT22;15903;49.008;8.394;2023-03-14T08:02:42;13.30;99.90
28747;DHT22;15903;49.008;8.394;2023-03-14T08:05:08;13.20;99.90
28747;DHT22;15903;49.008;8.394;2023-03-14T08:07:33;13.20;99.90
28747;DHT22;15903;49.008;8.394;2023-03-14T08:09:59;13.30;99.90
28747;DHT22;15903;49.008;8.394;2023-03-14T08:12:25;13.30;99.90
28747;DHT22;15903;49.008;8.394;2023-03-14T08:14:51;13.20;99.90
28747;DHT22;15903;49.008;8.394;2023-03-14T08:17:16;13.30;99.90
28747;DHT22;15903;49.008;8.394;2023-03-14T08:19:42;13.10;99.90
28747;DHT22;15903;49.008;8.394;2023-03-14T08:22:08;13.10;99.90
28747;DHT22;15903;49.008;8.394;2023-03-14T08:24:33;13.00;99.90
28747;DHT22;15903;49.008;8.394;2023-03-14T08:26:59;13.20;99.90
28747;DHT22;15903;49.008;8.394;2023-03-14T08:29:24;13.10;99.90
28747;DHT22;15903;49.008;8.394;2023-03-14T08:31:50;13.00;99.90
28747;DHT22;15903;49.008;8.394;2023-03-14T08:34:16;13.00;99.90
28747;DHT22;15903;49.008;8.394;2023-03-14T08:36:42;12.90;99.90
28747;DHT22;15903;49.008;8.394;2023-03-14T08:39:08;12.90;99.90
28747;DHT22;15903;49.008;8.394;2023-03-14T08:41:34;12.80;99.90
28747;DHT22;15903;49.008;8.394;2023-03-14T08:44:06;12.90;99.90
28747;DHT22;15903;49.008;8.394;2023-03-14T08:46:31;12.90;99.90
28747;DHT22;15903;49.008;8.394;2023-03-14T08:48:57;12.90;99.90
28747;DHT22;15903;49.008;8.394;2023-03-14T08:51:23;12.90;99.90
28747;DHT22;15903;49.008;8.394;2023-03-14T08:53:48;13.00;99.90
28747;DHT22;15903;49.008;8.394;2023-03-14T08:56:14;13.00;99.90
28747;DHT22;15903;49.008;8.394;2023-03-14T08:58:40;13.00;99.90
28747;DHT22;15903;49.008;8.394;2023-03-14T09:01:09;13.00;99.90
28747;DHT22;15903;49.008;8.394;2023-03-14T09:03:34;13.10;99.90
28747;DHT22;15903;49.008;8.394;2023-03-14T09:06:08;13.00;99.90
28747;DHT22;15903;49.008;8.394;2023-03-14T09:08:35;13.00;99.90
28747;DHT22;15903;49.008;8.394;2023-03-14T09:11:01;13.00;99.90
28747;DHT22;15903;49.008;8.394;2023-03-14T09:13:27;13.00;99.90
28747;DHT22;15903;49.008;8.394;2023-03-14T09:15:53;13.00;99.90
28747;DHT22;15903;49.008;8.394;2023-03-14T09:18:20;13.00;99.90
28747;DHT22;15903;49.008;8.394;2023-03-14T09:20:45;13.00;99.90
28747;DHT22;15903;49.008;8.394;2023-03-14T09:23:11;12.90;99.90
28747;DHT22;15903;49.008;8.394;2023-03-14T09:25:36;13.00;99.90
28747;DHT22;15903;49.008;8.394;2023-03-14T09:28:02;13.10;99.90
28747;DHT22;15903;49.008;8.394;2023-03-14T09:30:28;13.10;99.90
28747;DHT22;15903;49.008;8.394;2023-03-14T09:32:53;13.20;99.90
28747;DHT22;15903;49.008;8.394;2023-03-14T09:35:19;13.10;99.90
28747;DHT22;15903;49.008;8.394;2023-03-14T09:37:44;13.10;99.90
28747;DHT22;15903;49.008;8.394;2023-03-14T09:40:15;13.10;99.90
28747;DHT22;15903;49.008;8.394;2023-03-14T09:42:41;13.20;99.90
28747;DHT22;15903;49.008;8.394;2023-03-14T09:45:13;13.20;99.90
28747;DHT22;15903;49.008;8.394;2023-03-14T09:47:40;13.20;99.90
28747;DHT22;15903;49.008;8.394;2023-03-14T09:50:13;13.30;99.90
28747;DHT22;15903;49.008;8.394;2023-03-14T09:52:39;13.30;99.90
28747;DHT22;15903;49.008;8.394;2023-03-14T09:55:13;13.20;99.90
28747;DHT22;15903;49.008;8.394;2023-03-14T09:57:41;13.30;99.90
28747;DHT22;15903;49.008;8.394;2023-03-14T10:00:19;13.40;99.90
28747;DHT22;15903;49.008;8.394;2023-03-14T10:02:53;13.50;99.90
28747;DHT22;15903;49.008;8.394;2023-03-14T10:05:23;13.70;99.90
28747;DHT22;15903;49.008;8.394;2023-03-14T10:07:49;13.70;99.90
28747;DHT22;15903;49.008;8.394;2023-03-14T10:10:20;13.60;99.90
28747;DHT22;15903;49.008;8.394;2023-03-14T10:12:55;13.50;99.90
28747;DHT22;15903;49.008;8.394;2023-03-14T10:15:31;13.50;99.90
28747;DHT22;15903;49.008;8.394;2023-03-14T10:18:02;13.50;99.90
28747;DHT22;15903;49.008;8.394;2023-03-14T10:23:00;13.50;99.90
28747;DHT22;15903;49.008;8.394;2023-03-14T10:25:33;13.40;99.90
28747;DHT22;15903;49.008;8.394;2023-03-14T10:27:58;13.40;99.90
28747;DHT22;15903;49.008;8.394;2023-03-14T10:30:39;13.30;99.90
28747;DHT22;15903;49.008;8.394;2023-03-14T10:33:26;13.30;99.90
28747;DHT22;15903;49.008;8.394;2023-03-14T10:35:55;13.20;99.90
28747;DHT22;15903;49.008;8.394;2023-03-14T10:38:24;13.10;99.90
28747;DHT22;15903;49.008;8.394;2023-03-14T10:40:52;13.10;99.90
28747;DHT22;15903;49.008;8.394;2023-03-14T10:43:22;13.10;99.90
28747;DHT22;15903;49.008;8.394;2023-03-14T10:45:55;13.00;99.90
28747;DHT22;15903;49.008;8.394;2023-03-14T10:48:34;13.00;99.90
28747;DHT22;15903;49.008;8.394;2023-03-14T10:51:07;13.00;99.90
28747;DHT22;15903;49.008;8.394;2023-03-14T10:53:40;12.90;99.90
28747;DHT22;15903;49.008;8.394;2023-03-14T10:56:07;12.80;99.90
28747;DHT22;15903;49.008;8.394;2023-03-14T10:58:38;12.80;99.90
28747;DHT22;15903;49.008;8.394;2023-03-14T11:06:40;12.60;99.90
28747;DHT22;15903;49.008;8.394;2023-03-14T11:09:21;12.50;99.90
28747;DHT22;15903;49.008;8.394;2023-03-14T11:11:48;12.50;99.90
28747;DHT22;15903;49.008;8.394;2023-03-14T11:14:35;12.50;99.90
28747;DHT22;15903;49.008;8.394;2023-03-14T11:17:23;12.50;99.90
28747;DHT22;15903;49.008;8.394;2023-03-14T11:20:12;12.50;99.90
28747;DHT22;15903;49.008;8.394;2023-03-14T11:23:16;12.40;99.90
28747;DHT22;15903;49.008;8.394;2023-03-14T11:26:16;12.50;99.90
28747;DHT22;15903;49.008;8.394;2023-03-14T11:28:49;12.40;99.90
28747;DHT22;15903;49.008;8.394;2023-03-14T11:31:26;12.30;99.90
28747;DHT22;15903;49.008;8.394;2023-03-14T11:34:27;12.20;99.90
28747;DHT22;15903;49.008;8.394;2023-03-14T11:36:59;12.30;99.90
28747;DHT22;15903;49.008;8.394;2023-03-14T11:39:34;12.20;99.90
28747;DHT22;15903;49.008;8.394;2023-03-14T11:42:03;12.20;99.90
28747;DHT22;15903;49.008;8.394;2023-03-14T11:44:32;12.10;99.90
28747;DHT22;15903;49.008;8.394;2023-03-14T11:47:19;12.10;99.90
28747;DHT22;15903;49.008;8.394;2023-03-14T11:52:33;12.00;99.90
28747;DHT22;15903;49.008;8.394;2023-03-14T11:55:13;12.00;99.90
28747;DHT22;15903;49.008;8.394;2023-03-14T11:57:40;11.90;99.90
28747;DHT22;15903;49.008;8.394;2023-03-14T12:00:16;11.80;99.90
28747;DHT22;15903;49.008;8.394;2023-03-14T12:03:06;11.80;99.90
28747;DHT22;15903;49.008;8.394;2023-03-14T12:05:54;11.60;99.90
28747;DHT22;15903;49.008;8.394;2023-03-14T12:11:20;11.60;99.90
28747;DHT22;15903;49.008;8.394;2023-03-14T12:13:50;11.60;99.90
28747;DHT22;15903;49.008;8.394;2023-03-14T12:16:37;11.80;99.90
28747;DHT22;15903;49.008;8.394;2023-03-14T12:19:28;11.90;99.90
28747;DHT22;15903;49.008;8.394;2023-03-14T12:24:27;11.80;99.90
28747;DHT22;15903;49.008;8.394;2023-03-14T12:26:56;11.80;99.90
28747;DHT22;15903;49.008;8.394;2023-03-14T12:29:23;11.70;99.90
28747;DHT22;15903;49.008;8.394;2023-03-14T12:32:07;11.70;99.90
28747;DHT22;15903;49.008;8.394;2023-03-14T12:34:42;11.70;99.90
28747;DHT22;15903;49.008;8.394;2023-03-14T12:42:59;11.70;99.90
28747;DHT22;15903;49.008;8.394;2023-03-14T12:45:32;11.70;99.90
28747;DHT22;15903;49.008;8.394;2023-03-14T12:48:14;11.70;99.90
28747;DHT22;15903;49.008;8.394;2023-03-14T12:50:43;11.80;99.90
28747;DHT22;15903;49.008;8.394;2023-03-14T12:56:21;11.90;99.90
28747;DHT22;15903;49.008;8.394;2023-03-14T13:01:25;12.00;99.90
28747;DHT22;15903;49.008;8.394;2023-03-14T13:04:08;12.10;99.90
28747;DHT22;15903;49.008;8.394;2023-03-14T13:06:55;11.90;98.80
28747;DHT22;15903;49.008;8.394;2023-03-14T13:12:13;11.90;95.40
28747;DHT22;15903;49.008;8.394;2023-03-14T13:14:48;11.90;94.20
28747;DHT22;15903;49.008;8.394;2023-03-14T13:17:18;11.90;94.50
28747;DHT22;15903;49.008;8.394;2023-03-14T13:19:52;11.90;93.00
28747;DHT22;15903;49.008;8.394;2023-03-14T13:22:25;12.00;93.10
28747;DHT22;15903;49.008;8.394;2023-03-14T13:25:05;12.00;92.70
28747;DHT22;15903;49.008;8.394;2023-03-14T13:27:33;12.00;91.70
28747;DHT22;15903;49.008;8.394;2023-03-14T13:30:26;12.00;91.80
28747;DHT22;15903;49.008;8.394;2023-03-14T13:32:52;12.10;93.40
28747;DHT22;15903;49.008;8.394;2023-03-14T13:35:26;12.10;92.30
28747;DHT22;15903;49.008;8.394;2023-03-14T13:37:58;12.20;92.00
28747;DHT22;15903;49.008;8.394;2023-03-14T13:40:29;12.20;91.90
28747;DHT22;15903;49.008;8.394;2023-03-14T13:43:11;12.10;90.60
28747;DHT22;15903;49.008;8.394;2023-03-14T13:45:50;12.10;90.80
28747;DHT22;15903;49.008;8.394;2023-03-14T13:48:17;12.00;90.60
28747;DHT22;15903;49.008;8.394;2023-03-14T13:50:52;12.00;91.00
28747;DHT22;15903;49.008;8.394;2023-03-14T13:53:18;12.00;91.00
28747;DHT22;15903;49.008;8.394;2023-03-14T13:55:44;12.00;90.30
28747;DHT22;15903;49.008;8.394;2023-03-14T13:58:23;12.00;90.90
28747;DHT22;15903;49.008;8.394;2023-03-14T14:03:31;12.00;90.00
28747;DHT22;15903;49.008;8.394;2023-03-14T14:05:58;12.00;86.20
28747;DHT22;15903;49.008;8.394;2023-03-14T14:08:24;12.00;88.50
28747;DHT22;15903;49.008;8.394;2023-03-14T14:10:54;12.20;82.20
28747;DHT22;15903;49.008;8.394;2023-03-14T14:13:23;12.20;83.40
28747;DHT22;15903;49.008;8.394;2023-03-14T14:15:51;12.00;80.60
28747;DHT22;15903;49.008;8.394;2023-03-14T14:18:18;12.20;84.10
28747;DHT22;15903;49.008;8.394;2023-03-14T14:20:47;12.20;79.90
28747;DHT22;15903;49.008;8.394;2023-03-14T14:23:17;12.10;81.20
28747;DHT22;15903;49.008;8.394;2023-03-14T14:25:45;12.10;81.70
28747;DHT22;15903;49.008;8.394;2023-03-14T14:30:59;12.40;78.90
28747;DHT22;15903;49.008;8.394;2023-03-14T14:33:25;12.50;80.20
28747;DHT22;15903;49.008;8.394;2023-03-14T14:35:54;12.60;76.60
28747;DHT22;15903;49.008;8.394;2023-03-14T14:38:20;12.70;79.20
28747;DHT22;15903;49.008;8.394;2023-03-14T14:40:51;12.80;79.20
28747;DHT22;15903;49.008;8.394;2023-03-14T14:43:22;12.70;76.50
28747;DHT22;15903;49.008;8.394;2023-03-14T14:45:53;12.50;75.20
28747;DHT22;15903;49.008;8.394;2023-03-14T14:48:24;12.50;76.40
28747;DHT22;15903;49.008;8.394;2023-03-14T14:55:57;12.80;76.30
28747;DHT22;15903;49.008;8.394;2023-03-14T14:58:28;13.00;78.40
28747;DHT22;15903;49.008;8.394;2023-03-14T15:01:03;13.00;77.30
28747;DHT22;15903;49.008;8.394;2023-03-14T15:03:32;13.00;79.60
28747;DHT22;15903;49.008;8.394;2023-03-14T15:05:59;13.10;79.50
28747;DHT22;15903;49.008;8.394;2023-03-14T15:08:25;13.10;78.20
28747;DHT22;15903;49.008;8.394;2023-03-14T15:10:51;13.10;80.70
28747;DHT22;15903;49.008;8.394;2023-03-14T15:13:17;13.00;77.40
28747;DHT22;15903;49.008;8.394;2023-03-14T15:15:43;12.80;75.50
28747;DHT22;15903;49.008;8.394;2023-03-14T15:18:18;12.60;75.50
28747;DHT22;15903;49.008;8.394;2023-03-14T15:20:44;12.40;76.70
28747;DHT22;15903;49.008;8.394;2023-03-14T15:23:15;12.50;78.60
28747;DHT22;15903;49.008;8.394;2023-03-14T15:25:42;12.50;77.80
28747;DHT22;15903;49.008;8.394;2023-03-14T15:28:21;12.60;76.40
28747;DHT22;15903;49.008;8.394;2023-03-14T15:30:48;12.70;76.20
28747;DHT22;15903;49.008;8.394;2023-03-14T15:33:14;12.90;78.80
28747;DHT22;15903;49.008;8.394;2023-03-14T15:35:40;12.80;79.50
28747;DHT22;15903;49.008;8.394;2023-03-14T15:38:13;12.70;77.50
28747;DHT22;15903;49.008;8.394;2023-03-14T15:40:40;12.50;77.30
28747;DHT22;15903;49.008;8.394;2023-03-14T15:43:06;12.40;79.60
28747;DHT22;15903;49.008;8.394;2023-03-14T15:45:32;12.30;79.00
28747;DHT22;15903;49.008;8.394;2023-03-14T15:47:57;12.20;78.50
28747;DHT22;15903;49.008;8.394;2023-03-14T15:50:23;12.20;80.30
28747;DHT22;15903;49.008;8.394;2023-03-14T15:52:50;12.10;80.00
28747;DHT22;15903;49.008;8.394;2023-03-14T15:55:16;12.10;80.70
28747;DHT22;15903;49.008;8.394;2023-03-14T15:57:43;12.00;81.00
28747;DHT22;15903;49.008;8.394;2023-03-14T16:00:12;12.00;81.80
28747;DHT22;15903;49.008;8.394;2023-03-14T16:02:39;12.00;81.20
28747;DHT22;15903;49.008;8.394;2023-03-14T16:05:08;12.00;80.70
28747;DHT22;15903;49.008;8.394;2023-03-14T16:07:33;11.90;80.60
28747;DHT22;15903;49.008;8.394;2023-03-14T16:09:59;11.90;82.00
28747;DHT22;15903;49.008;8.394;2023-03-14T16:12:24;11.90;82.00
28747;DHT22;15903;49.008;8.394;2023-03-14T16:14:50;11.90;82.10
28747;DHT22;15903;49.008;8.394;2023-03-14T16:17:16;11.80;82.70
28747;DHT22;15903;49.008;8.394;2023-03-14T16:19:41;11.70;81.30
28747;DHT22;15903;49.008;8.394;2023-03-14T16:22:07;11.70;83.30
28747;DHT22;15903;49.008;8.394;2023-03-14T16:24:32;11.60;82.30